sensor_id;sensor_type;location;lat;lon;timestamp;pressure;altitude;pressure_sealevel;temperature;humidity
59055;BME280;44845;51.444;7.460;2023-07-09T00:01:56;99937.34;;;22.29;54.47
59055;BME280;44845;51.444;7.460;2023-07-09T00:04:21;99936.38;;;22.30;54.45
59055;BME280;44845;51.444;7.460;2023-07-09T00:06:47;99932.06;;;22.27;54.36
59055;BME280;44845;51.444;7.460;2023-07-09T00:09:15;99940.28;;;22.24;54.85
59055;BME280;44845;51.444;7.460;2023-07-09T00:11:41;99936.13;;;22.19;55.06
59055;BME280;44845;51.444;7.460;2023-07-09T00:14:08;99931.81;;;22.16;55.42
59055;BME280;44845;51.444;7.460;2023-07-09T00:16:34;99935.44;;;22.15;54.95
59055;BME280;44845;51.444;7.460;2023-07-09T00:19:00;99938.03;;;22.16;53.56
59055;BME280;44845;51.444;7.460;2023-07-09T00:21:26;99930.97;;;22.15;54.41
59055;BME280;44845;51.444;7.460;2023-07-09T00:23:51;99926.66;;;22.13;54.11
59055;BME280;44845;51.444;7.460;2023-07-09T00:26:17;99928.38;;;22.14;53.96
59055;BME280;44845;51.444;7.460;2023-07-09T00:28:48;99932.94;;;22.12;53.98
59055;BME280;44845;51.444;7.460;2023-07-09T00:31:16;99923.22;;;22.11;54.05
59055;BME280;44845;51.444;7.460;2023-07-09T00:33:42;99926.91;;;22.08;54.50
59055;BME280;44845;51.444;7.460;2023-07-09T00:36:14;99922.34;;;22.10;54.80
59055;BME280;44845;51.444;7.460;2023-07-09T00:38:40;99922.53;;;22.07;54.71
59055;BME280;44845;51.444;7.460;2023-07-09T00:41:11;99917.19;;;22.07;55.26
59055;BME280;44845;51.444;7.460;2023-07-09T00:43:43;99924.34;;;22.07;55.14
59055;BME280;44845;51.444;7.460;2023-07-09T00:49:03;99916.13;;;22.10;55.31
59055;BME280;44845;51.444;7.460;2023-07-09T00:51:33;99918.63;;;21.97;55.63
59055;BME280;44845;51.444;7.460;2023-07-09T00:54:10;99922.19;;;21.97;56.35
59055;BME280;44845;51.444;7.460;2023-07-09T00:56:41;99917.66;;;21.98;56.45
59055;BME280;44845;51.444;7.460;2023-07-09T00:59:18;99918.53;;;21.98;56.75
59055;BME280;44845;51.444;7.460;2023-07-09T01:01:45;99923.19;;;21.94;57.07
59055;BME280;44845;51.444;7.460;2023-07-09T01:04:13;99918.03;;;21.91;56.77
59055;BME280;44845;51.444;7.460;2023-07-09T01:06:44;99914.38;;;21.92;57.06
59055;BME280;44845;51.444;7.460;2023-07-09T01:09:09;99919.91;;;21.89;57.33
59055;BME280;44845;51.444;7.460;2023-07-09T01:11:35;99915.63;;;21.85;58.26
59055;BME280;44845;51.444;7.460;2023-07-09T01:14:04;99920.19;;;21.83;57.96
59055;BME280;44845;51.444;7.460;2023-07-09T01:16:35;99920.63;;;21.75;59.28
59055;BME280;44845;51.444;7.460;2023-07-09T01:19:03;99924.34;;;21.73;59.08
59055;BME280;44845;51.444;7.460;2023-07-09T01:21:29;99920.97;;;21.69;59.13
59055;BME280;44845;51.444;7.460;2023-07-09T01:23:55;99913.97;;;21.66;59.31
59055;BME280;44845;51.444;7.460;2023-07-09T01:26:25;99917.75;;;21.62;59.63
59055;BME280;44845;51.444;7.460;2023-07-09T01:28:54;99923.97;;;21.63;59.71
59055;BME280;44845;51.444;7.460;2023-07-09T01:31:20;99924.81;;;21.63;59.80
59055;BME280;44845;51.444;7.460;2023-07-09T01:33:48;99924.81;;;21.63;60.04
59055;BME280;44845;51.444;7.460;2023-07-09T01:36:18;99921.84;;;21.52;60.18
59055;BME280;44845;51.444;7.460;2023-07-09T01:38:48;99928.38;;;21.46;60.55
59055;BME280;44845;51.444;7.460;2023-07-09T01:41:15;99923.91;;;21.46;60.87
59055;BME280;44845;51.444;7.460;2023-07-09T01:43:42;99931.13;;;21.44;60.78
59055;BME280;44845;51.444;7.460;2023-07-09T01:46:08;99932.16;;;21.42;60.91
59055;BME280;44845;51.444;7.460;2023-07-09T01:48:35;99925.94;;;21.41;60.87
59055;BME280;44845;51.444;7.460;2023-07-09T01:51:11;99924.25;;;21.40;61.43
59055;BME280;44845;51.444;7.460;2023-07-09T01:53:37;99925.16;;;21.39;61.43
59055;BME280;44845;51.444;7.460;2023-07-09T01:56:04;99921.97;;;21.32;61.79
59055;BME280;44845;51.444;7.460;2023-07-09T01:58:33;99915.75;;;21.32;61.59
59055;BME280;44845;51.444;7.460;2023-07-09T02:00:59;99916.78;;;21.29;60.70
59055;BME280;44845;51.444;7.460;2023-07-09T02:03:24;99916.78;;;21.29;60.40
59055;BME280;44845;51.444;7.460;2023-07-09T02:05:53;99924.72;;;21.31;60.71
59055;BME280;44845;51.444;7.460;2023-07-09T02:08:18;99928.31;;;21.30;60.99
59055;BME280;44845;51.444;7.460;2023-07-09T02:10:45;99923.72;;;21.15;62.04
59055;BME280;44845;51.444;7.460;2023-07-09T02:13:12;99928.66;;;21.23;62.21
59055;BME280;44845;51.444;7.460;2023-07-09T02:15:38;99930.22;;;21.10;62.92
59055;BME280;44845;51.444;7.460;2023-07-09T02:18:08;99925.66;;;21.12;62.96
59055;BME280;44845;51.444;7.460;2023-07-09T02:20:34;99925.19;;;21.03;63.56
59055;BME280;44845;51.444;7.460;2023-07-09T02:22:59;99931.31;;;21.06;63.54
59055;BME280;44845;51.444;7.460;2023-07-09T02:25:25;99924.53;;;20.98;63.79
59055;BME280;44845;51.444;7.460;2023-07-09T02:27:50;99937.78;;;21.00;63.40
59055;BME280;44845;51.444;7.460;2023-07-09T02:30:15;99924.44;;;21.00;63.08
59055;BME280;44845;51.444;7.460;2023-07-09T02:32:41;99922.69;;;21.00;62.91
59055;BME280;44845;51.444;7.460;2023-07-09T02:35:07;99927.69;;;21.07;62.73
59055;BME280;44845;51.444;7.460;2023-07-09T02:37:32;99937.06;;;20.96;63.01
59055;BME280;44845;51.444;7.460;2023-07-09T02:39:58;99935.66;;;20.89;63.45
59055;BME280;44845;51.444;7.460;2023-07-09T02:42:23;99929.53;;;20.87;63.40
59055;BME280;44845;51.444;7.460;2023-07-09T02:44:49;99926.56;;;20.93;63.10
59055;BME280;44845;51.444;7.460;2023-07-09T02:47:14;99933.06;;;20.87;63.34
59055;BME280;44845;51.444;7.460;2023-07-09T02:49:40;99933.91;;;20.88;63.15
59055;BME280;44845;51.444;7.460;2023-07-09T02:52:09;99932.81;;;20.92;63.36
59055;BME280;44845;51.444;7.460;2023-07-09T02:54:34;99941.00;;;20.89;63.50
59055;BME280;44845;51.444;7.460;2023-07-09T02:57:00;99935.94;;;20.82;63.52
59055;BME280;44845;51.444;7.460;2023-07-09T02:59:25;99937.69;;;20.84;63.30
59055;BME280;44845;51.444;7.460;2023-07-09T03:01:52;99938.38;;;20.87;62.90
59055;BME280;44845;51.444;7.460;2023-07-09T03:04:17;99945.38;;;20.90;63.21
59055;BME280;44845;51.444;7.460;2023-07-09T03:06:45;99939.41;;;20.85;63.19
59055;BME280;44845;51.444;7.460;2023-07-09T03:09:10;99951.88;;;20.84;63.61
59055;BME280;44845;51.444;7.460;2023-07-09T03:11:36;99951.78;;;20.86;63.57
59055;BME280;44845;51.444;7.460;2023-07-09T03:14:02;99948.19;;;20.87;63.30
59055;BME280;44845;51.444;7.460;2023-07-09T03:16:29;99958.53;;;20.93;62.97
59055;BME280;44845;51.444;7.460;2023-07-09T03:18:55;99945.44;;;20.88;62.62
59055;BME280;44845;51.444;7.460;2023-07-09T03:21:21;99954.09;;;20.93;61.99
59055;BME280;44845;51.444;7.460;2023-07-09T03:23:47;99956.66;;;20.95;62.24
59055;BME280;44845;51.444;7.460;2023-07-09T03:26:12;99960.28;;;20.94;62.49
59055;BME280;44845;51.444;7.460;2023-07-09T03:28:38;99962.94;;;20.94;62.32
59055;BME280;44845;51.444;7.460;2023-07-09T03:31:03;99964.50;;;20.98;61.88
59055;BME280;44845;51.444;7.460;2023-07-09T03:33:29;99963.56;;;20.99;61.84
59055;BME280;44845;51.444;7.460;2023-07-09T03:35:54;99967.06;;;21.01;61.91
59055;BME280;44845;51.444;7.460;2023-07-09T03:38:20;99968.78;;;21.02;61.95
59055;BME280;44845;51.444;7.460;2023-07-09T03:40:45;99965.31;;;21.00;62.23
59055;BME280;44845;51.444;7.460;2023-07-09T03:43:11;99971.34;;;21.04;62.25
59055;BME280;44845;51.444;7.460;2023-07-09T03:45:37;99972.22;;;21.04;62.47
59055;BME280;44845;51.444;7.460;2023-07-09T03:48:04;99972.06;;;21.08;62.42
59055;BME280;44845;51.444;7.460;2023-07-09T03:50:30;99978.09;;;21.11;61.69
59055;BME280;44845;51.444;7.460;2023-07-09T03:52:56;99973.63;;;21.12;62.59
59055;BME280;44845;51.444;7.460;2023-07-09T03:55:21;99975.38;;;21.13;62.13
59055;BME280;44845;51.444;7.460;2023-07-09T03:57:47;99969.25;;;21.11;61.99
59055;BME280;44845;51.444;7.460;2023-07-09T04:00:13;99966.59;;;21.11;62.32
59055;BME280;44845;51.444;7.460;2023-07-09T04:02:40;99971.94;;;21.11;62.78
59055;BME280;44845;51.444;7.460;2023-07-09T04:05:06;99965.72;;;21.10;62.68
59055;BME280;44845;51.444;7.460;2023-07-09T04:07:33;99970.91;;;21.13;62.80
59055;BME280;44845;51.444;7.460;2023-07-09T04:09:59;99964.72;;;21.13;62.46
59055;BME280;44845;51.444;7.460;2023-07-09T04:12:24;99969.25;;;21.11;61.70
59055;BME280;44845;51.444;7.460;2023-07-09T04:14:50;99972.84;;;21.10;63.08
59055;BME280;44845;51.444;7.460;2023-07-09T04:17:15;99965.41;;;21.17;63.30
59055;BME280;44845;51.444;7.460;2023-07-09T04:19:40;99971.75;;;21.14;63.28
59055;BME280;44845;51.444;7.460;2023-07-09T04:22:06;99978.69;;;21.18;63.62
59055;BME280;44845;51.444;7.460;2023-07-09T04:24:31;99971.59;;;21.17;63.92
59055;BME280;44845;51.444;7.460;2023-07-09T04:26:58;99973.50;;;21.15;63.80
59055;BME280;44845;51.444;7.460;2023-07-09T04:29:31;99978.69;;;21.18;63.85
59055;BME280;44845;51.444;7.460;2023-07-09T04:31:59;99976.16;;;21.15;64.33
59055;BME280;44845;51.444;7.460;2023-07-09T04:34:25;99984.78;;;21.20;64.34
59055;BME280;44845;51.444;7.460;2023-07-09T04:36:50;99978.81;;;21.15;64.28
59055;BME280;44845;51.444;7.460;2023-07-09T04:39:15;99978.81;;;21.15;64.79
59055;BME280;44845;51.444;7.460;2023-07-09T04:41:41;99977.09;;;21.14;65.02
59055;BME280;44845;51.444;7.460;2023-07-09T04:44:06;99984.16;;;21.15;64.87
59055;BME280;44845;51.444;7.460;2023-07-09T04:46:31;99980.56;;;21.16;65.17
59055;BME280;44845;51.444;7.460;2023-07-09T04:48:57;99978.81;;;21.15;65.08
59055;BME280;44845;51.444;7.460;2023-07-09T04:51:22;99989.50;;;21.15;64.97
59055;BME280;44845;51.444;7.460;2023-07-09T04:53:48;99977.72;;;21.19;65.40
59055;BME280;44845;51.444;7.460;2023-07-09T04:56:16;99983.84;;;21.21;65.17
59055;BME280;44845;51.444;7.460;2023-07-09T04:58:42;99988.31;;;21.21;65.68
59055;BME280;44845;51.444;7.460;2023-07-09T05:01:07;99982.75;;;21.25;65.27
59055;BME280;44845;51.444;7.460;2023-07-09T05:03:32;99987.22;;;21.25;65.89
59055;BME280;44845;51.444;7.460;2023-07-09T05:05:58;99987.13;;;21.26;66.33
59055;BME280;44845;51.444;7.460;2023-07-09T05:08:23;99992.31;;;21.30;66.64
59055;BME280;44845;51.444;7.460;2023-07-09T05:10:51;99992.47;;;21.26;66.37
59055;BME280;44845;51.444;7.460;2023-07-09T05:13:17;99993.88;;;21.34;66.54
59055;BME280;44845;51.444;7.460;2023-07-09T05:15:44;99988.50;;;21.35;66.87
59055;BME280;44845;51.444;7.460;2023-07-09T05:18:11;99984.81;;;21.38;66.84
59055;BME280;44845;51.444;7.460;2023-07-09T05:20:37;99991.69;;;21.42;67.32
59055;BME280;44845;51.444;7.460;2023-07-09T05:23:03;99986.22;;;21.45;67.58
59055;BME280;44845;51.444;7.460;2023-07-09T05:25:29;99987.91;;;21.46;67.90
59055;BME280;44845;51.444;7.460;2023-07-09T05:30:19;99991.06;;;21.55;67.34
59055;BME280;44845;51.444;7.460;2023-07-09T05:32:46;99989.94;;;21.59;67.44
59055;BME280;44845;51.444;7.460;2023-07-09T05:35:11;99987.91;;;21.64;66.42
59055;BME280;44845;51.444;7.460;2023-07-09T05:37:37;99992.38;;;21.64;67.40
59055;BME280;44845;51.444;7.460;2023-07-09T05:40:04;99996.69;;;21.66;67.15
59055;BME280;44845;51.444;7.460;2023-07-09T05:42:31;99998.19;;;21.72;66.83
59055;BME280;44845;51.444;7.460;2023-07-09T05:44:56;99999.91;;;21.73;66.96
59055;BME280;44845;51.444;7.460;2023-07-09T05:47:21;99991.81;;;21.75;66.11
59055;BME280;44845;51.444;7.460;2023-07-09T05:49:47;100002.31;;;21.78;66.23
59055;BME280;44845;51.444;7.460;2023-07-09T05:52:15;99990.56;;;21.82;65.91
59055;BME280;44845;51.444;7.460;2023-07-09T05:54:40;99997.69;;;21.81;66.58
59055;BME280;44845;51.444;7.460;2023-07-09T05:57:06;99993.03;;;21.85;65.03
59055;BME280;44845;51.444;7.460;2023-07-09T05:59:31;100001.63;;;21.92;66.20
59055;BME280;44845;51.444;7.460;2023-07-09T06:01:56;99999.66;;;21.96;65.61
59055;BME280;44845;51.444;7.460;2023-07-09T06:04:22;100004.84;;;21.99;66.95
59055;BME280;44845;51.444;7.460;2023-07-09T06:06:48;99998.56;;;22.00;65.50
59055;BME280;44845;51.444;7.460;2023-07-09T06:09:14;100000.88;;;22.06;65.36
59055;BME280;44845;51.444;7.460;2023-07-09T06:11:40;100002.44;;;22.10;64.68
59055;BME280;44845;51.444;7.460;2023-07-09T06:14:05;99996.94;;;22.13;64.21
59055;BME280;44845;51.444;7.460;2023-07-09T06:16:31;100000.22;;;22.19;65.06
59055;BME280;44845;51.444;7.460;2023-07-09T06:18:56;100015.84;;;22.26;64.99
59055;BME280;44845;51.444;7.460;2023-07-09T06:21:22;100009.53;;;22.27;63.76
59055;BME280;44845;51.444;7.460;2023-07-09T06:23:47;100004.91;;;22.31;64.59
59055;BME280;44845;51.444;7.460;2023-07-09T06:26:12;100009.13;;;22.35;64.92
59055;BME280;44845;51.444;7.460;2023-07-09T06:28:38;100008.97;;;22.38;63.17
59055;BME280;44845;51.444;7.460;2023-07-09T06:31:03;100009.56;;;22.44;64.18
59055;BME280;44845;51.444;7.460;2023-07-09T06:33:29;100006.81;;;22.45;64.29
59055;BME280;44845;51.444;7.460;2023-07-09T06:35:59;100005.66;;;22.49;63.12
59055;BME280;44845;51.444;7.460;2023-07-09T06:38:26;100003.28;;;22.61;63.38
59055;BME280;44845;51.444;7.460;2023-07-09T06:40:52;100009.06;;;22.69;63.67
59055;BME280;44845;51.444;7.460;2023-07-09T06:43:18;100009.34;;;22.81;64.44
59055;BME280;44845;51.444;7.460;2023-07-09T06:45:55;100010.44;;;22.93;64.59
59055;BME280;44845;51.444;7.460;2023-07-09T06:48:21;100010.84;;;23.01;64.05
59055;BME280;44845;51.444;7.460;2023-07-09T06:50:47;100012.97;;;23.11;63.72
59055;BME280;44845;51.444;7.460;2023-07-09T06:53:13;100013.50;;;23.17;64.17
59055;BME280;44845;51.444;7.460;2023-07-09T06:55:39;100005.22;;;23.22;63.17
59055;BME280;44845;51.444;7.460;2023-07-09T06:58:05;100014.38;;;23.33;64.38
59055;BME280;44845;51.444;7.460;2023-07-09T07:00:30;100010.50;;;23.38;62.75
59055;BME280;44845;51.444;7.460;2023-07-09T07:02:56;100012.88;;;23.43;63.43
59055;BME280;44845;51.444;7.460;2023-07-09T07:05:21;100013.50;;;23.48;63.14
59055;BME280;44845;51.444;7.460;2023-07-09T07:07:47;100012.56;;;23.49;63.04
59055;BME280;44845;51.444;7.460;2023-07-09T07:10:12;100017.53;;;23.56;62.13
59055;BME280;44845;51.444;7.460;2023-07-09T07:12:46;100005.69;;;23.60;62.92
59055;BME280;44845;51.444;7.460;2023-07-09T07:15:14;100006.28;;;23.65;63.42
59055;BME280;44845;51.444;7.460;2023-07-09T07:17:40;100015.28;;;23.64;63.21
59055;BME280;44845;51.444;7.460;2023-07-09T07:20:06;100009.44;;;23.72;62.72
59055;BME280;44845;51.444;7.460;2023-07-09T07:22:32;100011.56;;;23.81;62.11
59055;BME280;44845;51.444;7.460;2023-07-09T07:24:57;100011.06;;;23.89;62.52
59055;BME280;44845;51.444;7.460;2023-07-09T07:27:23;100007.84;;;23.99;63.00
59055;BME280;44845;51.444;7.460;2023-07-09T07:29:48;100008.13;;;24.09;62.80
59055;BME280;44845;51.444;7.460;2023-07-09T07:32:13;100001.50;;;24.14;62.67
59055;BME280;44845;51.444;7.460;2023-07-09T07:34:39;100002.84;;;24.22;62.55
59055;BME280;44845;51.444;7.460;2023-07-09T07:37:04;100008.69;;;24.28;63.08
59055;BME280;44845;51.444;7.460;2023-07-09T07:39:29;100000.19;;;24.36;62.49
59055;BME280;44845;51.444;7.460;2023-07-09T07:41:55;100010.31;;;24.46;62.00
59055;BME280;44845;51.444;7.460;2023-07-09T07:44:21;100009.53;;;24.58;61.14
59055;BME280;44845;51.444;7.460;2023-07-09T07:46:46;100016.69;;;24.72;61.68
59055;BME280;44845;51.444;7.460;2023-07-09T07:49:12;100014.25;;;24.82;61.91
59055;BME280;44845;51.444;7.460;2023-07-09T07:51:37;100010.53;;;24.98;61.63
59055;BME280;44845;51.444;7.460;2023-07-09T07:54:03;100009.53;;;25.01;62.50
59055;BME280;44845;51.444;7.460;2023-07-09T07:56:29;100015.91;;;24.98;62.18
59055;BME280;44845;51.444;7.460;2023-07-09T07:58:55;100015.31;;;25.07;61.20
59055;BME280;44845;51.444;7.460;2023-07-09T08:01:20;100007.09;;;25.11;61.96
59055;BME280;44845;51.444;7.460;2023-07-09T08:03:45;100005.69;;;25.18;62.21
59055;BME280;44845;51.444;7.460;2023-07-09T08:06:11;100014.94;;;25.14;60.39
59055;BME280;44845;51.444;7.460;2023-07-09T08:08:37;100007.69;;;25.29;60.41
59055;BME280;44845;51.444;7.460;2023-07-09T08:11:05;100008.50;;;25.29;60.99
59055;BME280;44845;51.444;7.460;2023-07-09T08:13:33;100010.88;;;25.34;60.26
59055;BME280;44845;51.444;7.460;2023-07-09T08:15:59;100004.56;;;25.35;59.38
59055;BME280;44845;51.444;7.460;2023-07-09T08:18:24;100004.56;;;25.35;60.07
59055;BME280;44845;51.444;7.460;2023-07-09T08:20:50;100000.81;;;25.38;58.88
59055;BME280;44845;51.444;7.460;2023-07-09T08:23:15;99997.19;;;25.39;61.67
59055;BME280;44845;51.444;7.460;2023-07-09T08:25:40;99998.47;;;25.46;59.28
59055;BME280;44845;51.444;7.460;2023-07-09T08:28:06;99996.31;;;25.51;60.11
59055;BME280;44845;51.444;7.460;2023-07-09T08:30:31;99997.59;;;25.59;59.65
59055;BME280;44845;51.444;7.460;2023-07-09T08:32:57;99997.19;;;25.65;59.52
59055;BME280;44845;51.444;7.460;2023-07-09T08:35:22;99994.00;;;25.73;60.58
59055;BME280;44845;51.444;7.460;2023-07-09T08:37:48;99996.56;;;25.74;57.82
59055;BME280;44845;51.444;7.460;2023-07-09T08:40:15;99997.84;;;25.82;57.87
59055;BME280;44845;51.444;7.460;2023-07-09T08:42:44;99986.47;;;25.91;56.51
59055;BME280;44845;51.444;7.460;2023-07-09T08:48:05;99987.06;;;26.08;56.03
59055;BME280;44845;51.444;7.460;2023-07-09T08:50:39;99979.34;;;26.16;55.05
59055;BME280;44845;51.444;7.460;2023-07-09T08:53:18;99979.13;;;26.19;56.64
59055;BME280;44845;51.444;7.460;2023-07-09T08:55:45;99985.78;;;26.27;52.57
59055;BME280;44845;51.444;7.460;2023-07-09T08:58:25;99984.69;;;26.29;54.22
59055;BME280;44845;51.444;7.460;2023-07-09T09:01:03;99982.28;;;26.38;54.20
59055;BME280;44845;51.444;7.460;2023-07-09T09:03:55;99982.63;;;26.46;52.97
59055;BME280;44845;51.444;7.460;2023-07-09T09:06:28;99977.03;;;26.49;52.51
59055;BME280;44845;51.444;7.460;2023-07-09T09:16:51;99965.38;;;26.86;51.75
59055;BME280;44845;51.444;7.460;2023-07-09T09:19:34;99978.81;;;26.86;52.53
59055;BME280;44845;51.444;7.460;2023-07-09T09:22:09;99973.44;;;26.86;54.43
59055;BME280;44845;51.444;7.460;2023-07-09T09:27:13;99973.47;;;26.98;52.14
59055;BME280;44845;51.444;7.460;2023-07-09T09:29:39;99963.69;;;26.97;52.00
59055;BME280;44845;51.444;7.460;2023-07-09T09:32:22;99966.84;;;26.91;49.32
59055;BME280;44845;51.444;7.460;2023-07-09T09:34:48;99963.41;;;26.88;49.25
59055;BME280;44845;51.444;7.460;2023-07-09T09:37:24;99966.09;;;27.13;49.01
59055;BME280;44845;51.444;7.460;2023-07-09T09:39:50;99966.13;;;27.00;52.89
59055;BME280;44845;51.444;7.460;2023-07-09T09:42:16;99975.81;;;27.03;52.81
59055;BME280;44845;51.444;7.460;2023-07-09T09:44:44;99973.72;;;27.06;52.68
59055;BME280;44845;51.444;7.460;2023-07-09T09:47:10;99965.91;;;27.03;51.62
59055;BME280;44845;51.444;7.460;2023-07-09T09:49:43;99966.13;;;27.00;51.09
59055;BME280;44845;51.444;7.460;2023-07-09T09:52:17;99972.53;;;27.10;50.35
59055;BME280;44845;51.444;7.460;2023-07-09T09:55:10;99970.81;;;27.09;52.13
59055;BME280;44845;51.444;7.460;2023-07-09T09:57:36;99967.63;;;27.04;50.49
59055;BME280;44845;51.444;7.460;2023-07-09T10:00:02;99971.69;;;27.10;51.84
59055;BME280;44845;51.444;7.460;2023-07-09T10:02:27;99972.78;;;27.07;50.19
59055;BME280;44845;51.444;7.460;2023-07-09T10:04:53;99973.41;;;27.11;51.59
59055;BME280;44845;51.444;7.460;2023-07-09T10:07:21;99963.59;;;27.10;51.56
59055;BME280;44845;51.444;7.460;2023-07-09T10:09:53;99962.97;;;27.06;54.09
59055;BME280;44845;51.444;7.460;2023-07-09T10:14:58;99963.75;;;27.08;49.02
59055;BME280;44845;51.444;7.460;2023-07-09T10:18:01;99971.66;;;27.35;48.24
59055;BME280;44845;51.444;7.460;2023-07-09T10:20:36;99955.16;;;27.51;48.32
59055;BME280;44845;51.444;7.460;2023-07-09T10:23:29;99961.69;;;27.60;49.04
59055;BME280;44845;51.444;7.460;2023-07-09T10:26:05;99958.97;;;27.71;49.10
59055;BME280;44845;51.444;7.460;2023-07-09T10:32:24;99953.59;;;27.60;51.15
59055;BME280;44845;51.444;7.460;2023-07-09T10:34:55;99947.34;;;27.48;51.44
59055;BME280;44845;51.444;7.460;2023-07-09T10:40:30;99934.47;;;27.63;46.94
59055;BME280;44845;51.444;7.460;2023-07-09T10:42:59;99930.84;;;27.98;44.70
59055;BME280;44845;51.444;7.460;2023-07-09T10:45:31;99926.28;;;28.10;44.29
59055;BME280;44845;51.444;7.460;2023-07-09T10:48:02;99930.50;;;27.92;45.97
59055;BME280;44845;51.444;7.460;2023-07-09T10:50:36;99922.25;;;28.05;46.04
59055;BME280;44845;51.444;7.460;2023-07-09T10:55:43;99913.94;;;27.96;47.04
59055;BME280;44845;51.444;7.460;2023-07-09T10:58:39;99923.75;;;28.09;46.23
59055;BME280;44845;51.444;7.460;2023-07-09T11:01:07;99928.38;;;27.95;48.52
59055;BME280;44845;51.444;7.460;2023-07-09T11:03:55;99932.47;;;27.90;47.62
59055;BME280;44845;51.444;7.460;2023-07-09T11:06:44;99925.94;;;27.81;47.66
59055;BME280;44845;51.444;7.460;2023-07-09T11:09:25;99919.81;;;27.67;48.23
59055;BME280;44845;51.444;7.460;2023-07-09T11:11:54;99919.19;;;27.63;49.20
59055;BME280;44845;51.444;7.460;2023-07-09T11:14:33;99906.81;;;27.61;50.34
59055;BME280;44845;51.444;7.460;2023-07-09T11:17:01;99917.34;;;27.52;49.39
59055;BME280;44845;51.444;7.460;2023-07-09T11:19:28;99916.13;;;27.45;51.14
59055;BME280;44845;51.444;7.460;2023-07-09T11:22:14;99921.16;;;27.50;51.25
59055;BME280;44845;51.444;7.460;2023-07-09T11:25:05;99922.13;;;27.49;50.45
59055;BME280;44845;51.444;7.460;2023-07-09T11:27:31;99916.59;;;27.39;51.36
59055;BME280;44845;51.444;7.460;2023-07-09T11:32:22;99912.69;;;27.77;44.11
59055;BME280;44845;51.444;7.460;2023-07-09T11:34:48;99903.28;;;27.72;45.50
59055;BME280;44845;51.444;7.460;2023-07-09T11:37:14;99901.94;;;27.54;47.74
59055;BME280;44845;51.444;7.460;2023-07-09T11:42:25;99886.63;;;27.32;48.81
59055;BME280;44845;51.444;7.460;2023-07-09T11:45:00;99887.47;;;27.55;47.53
59055;BME280;44845;51.444;7.460;2023-07-09T11:47:34;99880.38;;;28.00;46.26
59055;BME280;44845;51.444;7.460;2023-07-09T11:50:12;99888.13;;;27.94;46.92
59055;BME280;44845;51.444;7.460;2023-07-09T11:52:51;99885.56;;;27.92;46.55
59055;BME280;44845;51.444;7.460;2023-07-09T11:55:40;99885.28;;;27.95;46.71
59055;BME280;44845;51.444;7.460;2023-07-09T11:58:09;99875.56;;;28.16;43.12
59055;BME280;44845;51.444;7.460;2023-07-09T12:00:46;99865.19;;;28.11;43.93
59055;BME280;44845;51.444;7.460;2023-07-09T12:03:29;99869.47;;;28.02;45.87
59055;BME280;44845;51.444;7.460;2023-07-09T12:06:01;99864.84;;;27.93;44.61
59055;BME280;44845;51.444;7.460;2023-07-09T12:08:33;99871.81;;;27.95;44.32
59055;BME280;44845;51.444;7.460;2023-07-09T12:10:59;99862.59;;;28.09;45.57
59055;BME280;44845;51.444;7.460;2023-07-09T12:13:25;99864.69;;;28.06;42.21
59055;BME280;44845;51.444;7.460;2023-07-09T12:15:50;99855.13;;;28.13;45.06
59055;BME280;44845;51.444;7.460;2023-07-09T12:18:16;99860.66;;;28.00;46.64
59055;BME280;44845;51.444;7.460;2023-07-09T12:20:47;99857.63;;;27.82;47.15
59055;BME280;44845;51.444;7.460;2023-07-09T12:23:32;99856.88;;;27.91;46.47
59055;BME280;44845;51.444;7.460;2023-07-09T12:26:03;99862.50;;;27.88;45.35
59055;BME280;44845;51.444;7.460;2023-07-09T12:28:29;99859.69;;;27.78;47.55
59055;BME280;44845;51.444;7.460;2023-07-09T12:30:55;99854.56;;;27.86;46.60
59055;BME280;44845;51.444;7.460;2023-07-09T12:33:24;99846.97;;;27.80;46.98
59055;BME280;44845;51.444;7.460;2023-07-09T12:35:54;99853.47;;;27.89;45.60
59055;BME280;44845;51.444;7.460;2023-07-09T12:38:22;99854.69;;;27.96;45.43
59055;BME280;44845;51.444;7.460;2023-07-09T12:40:50;99846.06;;;28.03;45.49
59055;BME280;44845;51.444;7.460;2023-07-09T12:43:25;99850.50;;;28.04;46.25
59055;BME280;44845;51.444;7.460;2023-07-09T12:45:53;99847.31;;;27.98;46.06
59055;BME280;44845;51.444;7.460;2023-07-09T12:48:21;99846.50;;;27.86;46.54
59055;BME280;44845;51.444;7.460;2023-07-09T12:50:49;99843.91;;;27.96;46.16
59055;BME280;44845;51.444;7.460;2023-07-09T12:53:20;99849.03;;;27.99;46.33
59055;BME280;44845;51.444;7.460;2023-07-09T12:55:51;99841.78;;;28.11;45.44
59055;BME280;44845;51.444;7.460;2023-07-09T12:58:21;99834.56;;;28.00;46.80
59055;BME280;44845;51.444;7.460;2023-07-09T13:00:49;99830.91;;;28.02;46.19
59055;BME280;44845;51.444;7.460;2023-07-09T13:03:28;99827.13;;;27.93;45.17
59055;BME280;44845;51.444;7.460;2023-07-09T13:06:01;99829.44;;;27.97;44.94
59055;BME280;44845;51.444;7.460;2023-07-09T13:08:30;99831.16;;;27.98;45.98
59055;BME280;44845;51.444;7.460;2023-07-09T13:10:56;99826.19;;;28.15;45.62
59055;BME280;44845;51.444;7.460;2023-07-09T13:13:23;99826.34;;;28.14;45.76
59055;BME280;44845;51.444;7.460;2023-07-09T13:15:56;99823.03;;;28.10;47.24
59055;BME280;44845;51.444;7.460;2023-07-09T13:18:24;99833.22;;;28.06;48.30
59055;BME280;44845;51.444;7.460;2023-07-09T13:20:54;99834.31;;;28.04;48.82
59055;BME280;44845;51.444;7.460;2023-07-09T13:23:26;99824.41;;;28.37;46.97
59055;BME280;44845;51.444;7.460;2023-07-09T13:25:52;99828.69;;;28.40;46.97
59055;BME280;44845;51.444;7.460;2023-07-09T13:28:25;99816.78;;;28.42;47.87
59055;BME280;44845;51.444;7.460;2023-07-09T13:30:53;99809.69;;;28.41;46.55
59055;BME280;44845;51.444;7.460;2023-07-09T13:33:20;99803.44;;;28.41;46.49
59055;BME280;44845;51.444;7.460;2023-07-09T13:35:47;99804.44;;;28.61;42.82
59055;BME280;44845;51.444;7.460;2023-07-09T13:38:18;99810.44;;;28.65;44.71
59055;BME280;44845;51.444;7.460;2023-07-09T13:40:45;99805.19;;;28.63;43.99